Time;durP1;ratioP1;P1;durP2;ratioP2;P2;SDS_P1;SDS_P2;PMS_P1;PMS_P2;Temp;Humidity;BMP_temperature;BMP_pressure;BME280_temperature;BME280_humidity;BME280_pressure;Samples;Min_cycle;Max_cycle;Signal;HPM_P1;HPM_P2
2023/10/25 00:02:19;;;;;;;19.67;7.60;;;9.50;99.90;;;;;;5077460;28;20123;-74
2023/10/25 00:04:45;;;;;;;19.00;8.82;;;9.50;99.90;;;;;;5089494;28;20043;-72
2023/10/25 00:07:11;;;;;;;14.40;7.85;;;9.50;99.90;;;;;;5089846;28;20040;-72
2023/10/25 00:09:37;;;;;;;13.60;7.53;;;9.40;99.90;;;;;;5090507;28;20442;-73
2023/10/25 00:12:03;;;;;;;15.52;7.35;;;9.40;99.90;;;;;;5090157;28;20051;-73
2023/10/25 00:14:29;;;;;;;15.43;7.50;;;9.40;99.90;;;;;;5088591;28;20043;-73
2023/10/25 00:16:55;;;;;;;17.95;8.30;;;9.40;99.90;;;;;;5073141;28;20046;-72
2023/10/25 00:19:20;;;;;;;17.45;8.88;;;9.40;99.90;;;;;;5089199;28;20925;-72
2023/10/25 00:21:46;;;;;;;15.40;7.93;;;9.40;99.90;;;;;;5090164;28;20056;-74
2023/10/25 00:24:12;;;;;;;11.82;7.60;;;9.40;99.90;;;;;;5090476;28;20131;-73
2023/10/25 00:26:37;;;;;;;17.90;7.70;;;9.30;99.90;;;;;;5090544;28;20087;-72
2023/10/25 00:29:04;;;;;;;10.35;6.72;;;9.30;99.90;;;;;;5090199;28;20505;-73
2023/10/25 00:31:30;;;;;;;17.95;8.63;;;9.30;99.90;;;;;;5074339;28;20143;-72
2023/10/25 00:33:57;;;;;;;17.80;8.20;;;9.30;99.90;;;;;;5072892;28;20673;-73
2023/10/25 00:36:23;;;;;;;16.38;7.10;;;9.30;99.90;;;;;;5091249;28;20127;-73
2023/10/25 00:38:48;;;;;;;13.60;7.57;;;9.30;99.90;;;;;;5091664;28;20143;-73
2023/10/25 00:41:15;;;;;;;16.20;7.97;;;9.20;99.90;;;;;;5091875;28;20067;-73
2023/10/25 00:43:40;;;;;;;15.05;7.88;;;9.30;99.90;;;;;;5091324;28;20595;-73
2023/10/25 00:46:12;;;;;;;14.75;7.50;;;9.30;99.90;;;;;;5094075;28;20071;-73
2023/10/25 00:48:47;;;;;;;15.40;7.55;;;9.30;99.90;;;;;;5095051;28;20074;-73
2023/10/25 00:51:14;;;;;;;13.60;7.03;;;9.20;99.90;;;;;;5093542;28;20037;-73
2023/10/25 00:53:50;;;;;;;15.60;7.07;;;9.20;99.90;;;;;;5099171;28;20048;-73
2023/10/25 00:56:19;;;;;;;11.48;6.88;;;9.20;99.90;;;;;;5080088;28;20044;-73
2023/10/25 00:58:48;;;;;;;11.68;6.97;;;9.20;99.90;;;;;;5085209;28;20051;-72
2023/10/25 01:01:15;;;;;;;13.32;6.97;;;9.20;99.90;;;;;;5103023;28;20118;-73
2023/10/25 01:03:41;;;;;;;13.10;6.57;;;9.20;99.90;;;;;;5093713;28;20051;-72
2023/10/25 01:06:06;;;;;;;15.40;7.32;;;9.20;99.90;;;;;;5091965;28;20168;-73
2023/10/25 01:08:32;;;;;;;19.30;7.60;;;9.20;99.90;;;;;;5094110;28;20051;-73
2023/10/25 01:11:01;;;;;;;14.73;7.40;;;9.20;99.90;;;;;;5093703;28;20047;-72
2023/10/25 01:13:27;;;;;;;15.55;6.78;;;9.10;99.90;;;;;;5092875;28;20036;-73
2023/10/25 01:15:53;;;;;;;15.20;6.95;;;9.10;99.90;;;;;;5092921;28;20045;-73
2023/10/25 01:18:19;;;;;;;18.55;7.78;;;9.10;99.90;;;;;;5093597;28;20044;-73
2023/10/25 01:20:45;;;;;;;17.25;7.28;;;9.00;99.90;;;;;;5093549;28;20051;-73
2023/10/25 01:23:12;;;;;;;11.15;6.28;;;9.10;99.90;;;;;;5092893;28;20091;-73
2023/10/25 01:25:39;;;;;;;9.23;5.93;;;9.00;99.90;;;;;;5092158;28;20105;-73
2023/10/25 01:28:05;;;;;;;10.73;6.05;;;9.00;99.90;;;;;;5093639;28;20043;-73
2023/10/25 01:30:32;;;;;;;11.55;7.13;;;9.00;99.90;;;;;;5092956;28;20047;-73
2023/10/25 01:33:00;;;;;;;12.88;6.38;;;9.00;99.90;;;;;;5093955;28;20079;-73
2023/10/25 01:35:26;;;;;;;13.63;7.07;;;9.00;99.90;;;;;;5078468;28;20048;-74
2023/10/25 01:37:53;;;;;;;11.23;6.35;;;9.00;99.90;;;;;;5076118;28;20040;-73
2023/10/25 01:40:21;;;;;;;10.00;6.05;;;9.20;99.90;;;;;;5092414;28;20550;-74
2023/10/25 01:42:53;;;;;;;13.30;6.43;;;9.00;99.90;;;;;;5076741;28;20075;-73
2023/10/25 01:45:21;;;;;;;12.48;5.90;;;8.90;99.90;;;;;;5074350;28;20442;-73
2023/10/25 01:47:47;;;;;;;11.13;5.53;;;8.90;99.90;;;;;;5093601;28;20483;-73
2023/10/25 01:50:13;;;;;;;10.60;6.25;;;9.00;99.90;;;;;;5093121;28;20040;-74
2023/10/25 01:52:38;;;;;;;9.30;5.57;;;8.90;99.90;;;;;;5094622;28;20135;-74
2023/10/25 01:55:04;;;;;;;11.82;6.35;;;8.90;99.90;;;;;;5086207;28;20048;-73
2023/10/25 01:57:30;;;;;;;12.75;6.68;;;8.90;99.90;;;;;;5093087;28;20051;-73
2023/10/25 01:59:56;;;;;;;14.73;6.70;;;8.90;99.90;;;;;;5102443;28;20043;-73
2023/10/25 02:02:21;;;;;;;12.77;7.00;;;8.90;99.90;;;;;;5108177;28;20059;-74
2023/10/25 02:04:47;;;;;;;12.65;6.60;;;8.90;99.90;;;;;;5091950;28;20039;-73
2023/10/25 02:07:12;;;;;;;14.02;6.90;;;8.80;99.90;;;;;;5092947;28;20044;-73
2023/10/25 02:09:38;;;;;;;13.93;7.38;;;8.80;99.90;;;;;;5092828;28;20044;-73
2023/10/25 02:12:04;;;;;;;15.05;7.57;;;8.80;99.90;;;;;;5093954;28;20052;-73
2023/10/25 02:14:32;;;;;;;14.55;6.55;;;8.80;99.90;;;;;;5058114;28;20487;-73
2023/10/25 02:16:58;;;;;;;14.02;7.90;;;8.80;99.90;;;;;;5076286;28;20040;-73
2023/10/25 02:19:23;;;;;;;13.90;7.45;;;8.80;99.90;;;;;;5092767;28;20073;-73
2023/10/25 02:21:49;;;;;;;15.55;6.63;;;8.80;99.90;;;;;;5092609;28;20463;-73
2023/10/25 02:24:16;;;;;;;14.52;7.38;;;8.80;99.90;;;;;;5090877;28;20074;-73
2023/10/25 02:26:42;;;;;;;16.67;7.80;;;8.80;99.90;;;;;;5092378;28;20439;-74
2023/10/25 02:29:08;;;;;;;20.48;8.27;;;8.80;99.90;;;;;;5092686;28;20044;-73
2023/10/25 02:31:36;;;;;;;15.65;7.78;;;8.80;99.90;;;;;;5061952;28;20044;-73
2023/10/25 02:34:02;;;;;;;16.23;8.60;;;8.70;99.90;;;;;;5089653;28;20080;-75
2023/10/25 02:36:31;;;;;;;18.65;8.05;;;8.70;99.90;;;;;;5075348;28;20093;-74
2023/10/25 02:38:57;;;;;;;19.42;8.48;;;8.70;99.90;;;;;;5091576;28;20044;-73
2023/10/25 02:41:23;;;;;;;13.77;7.38;;;8.70;99.90;;;;;;5091836;28;20050;-74
2023/10/25 02:43:53;;;;;;;12.13;7.38;;;8.70;99.90;;;;;;5092353;28;20047;-73
2023/10/25 02:46:20;;;;;;;14.10;7.28;;;8.70;99.90;;;;;;5090548;28;20048;-73
2023/10/25 02:48:45;;;;;;;19.08;9.23;;;8.90;99.90;;;;;;5090142;28;20131;-73
2023/10/25 02:51:11;;;;;;;18.73;8.60;;;8.70;99.90;;;;;;5084012;28;20535;-74
2023/10/25 02:53:37;;;;;;;18.10;8.95;;;8.70;99.90;;;;;;5104521;28;20752;-73
2023/10/25 02:56:04;;;;;;;16.02;9.10;;;8.70;99.90;;;;;;5090925;28;20040;-73
2023/10/25 02:58:31;;;;;;;18.92;8.73;;;8.70;99.90;;;;;;5092051;28;20056;-73
2023/10/25 03:00:57;;;;;;;15.85;9.25;;;8.60;99.90;;;;;;5095487;28;20044;-73
2023/10/25 03:03:23;;;;;;;21.23;9.10;;;8.70;99.90;;;;;;5088921;28;20044;-73
2023/10/25 03:05:51;;;;;;;17.60;8.85;;;8.60;99.90;;;;;;5090265;28;20039;-73
2023/10/25 03:08:17;;;;;;;21.20;9.73;;;8.60;99.90;;;;;;5074890;28;20048;-73
2023/10/25 03:10:43;;;;;;;22.38;9.43;;;8.60;99.90;;;;;;5091451;28;20036;-73
2023/10/25 03:13:08;;;;;;;16.58;9.50;;;8.60;99.90;;;;;;5091764;28;20040;-73
2023/10/25 03:15:34;;;;;;;16.77;9.63;;;8.60;99.90;;;;;;5090808;28;20052;-73
2023/10/25 03:18:01;;;;;;;19.90;10.27;;;8.60;99.90;;;;;;5091806;28;20036;-73
2023/10/25 03:20:27;;;;;;;17.02;9.95;;;8.60;99.90;;;;;;5091863;28;20035;-73
2023/10/25 03:22:52;;;;;;;17.02;9.77;;;8.60;99.90;;;;;;5091297;28;20442;-73
2023/10/25 03:25:18;;;;;;;17.27;10.75;;;8.60;99.90;;;;;;5090566;28;20495;-73
2023/10/25 03:27:44;;;;;;;20.88;10.77;;;8.50;99.90;;;;;;5074177;28;20040;-73
2023/10/25 03:30:10;;;;;;;18.60;10.43;;;8.50;99.90;;;;;;5090457;28;20039;-73
2023/10/25 03:32:35;;;;;;;14.43;9.18;;;8.50;99.90;;;;;;5093321;28;20100;-73
2023/10/25 03:35:02;;;;;;;15.18;9.73;;;8.50;99.90;;;;;;5103085;28;20423;-73
2023/10/25 03:37:31;;;;;;;22.40;10.88;;;8.50;99.90;;;;;;5092521;28;20048;-73
2023/10/25 03:39:57;;;;;;;17.58;9.68;;;8.50;99.90;;;;;;5091525;28;20052;-73
2023/10/25 03:42:23;;;;;;;17.95;10.27;;;8.50;99.90;;;;;;5097582;28;20087;-74
2023/10/25 03:44:50;;;;;;;21.70;10.20;;;8.50;99.90;;;;;;5087540;28;20048;-73
2023/10/25 03:47:16;;;;;;;21.90;10.60;;;8.50;99.90;;;;;;5064427;28;20056;-72
2023/10/25 03:49:41;;;;;;;18.00;9.40;;;8.50;99.90;;;;;;5078771;28;20044;-73
2023/10/25 03:52:07;;;;;;;17.25;9.40;;;8.60;99.90;;;;;;5092946;28;20041;-74
2023/10/25 03:54:37;;;;;;;18.90;9.85;;;8.50;99.90;;;;;;5090509;28;20407;-73
2023/10/25 03:57:03;;;;;;;21.48;10.10;;;8.50;99.90;;;;;;5072678;28;20448;-73
2023/10/25 03:59:28;;;;;;;15.25;9.65;;;8.50;99.90;;;;;;5091777;28;20123;-73
2023/10/25 04:01:57;;;;;;;17.65;9.68;;;8.50;99.90;;;;;;5090307;28;20048;-73
2023/10/25 04:04:23;;;;;;;18.83;9.95;;;8.40;99.90;;;;;;5088566;28;20089;-74
2023/10/25 04:06:48;;;;;;;18.98;9.30;;;8.40;99.90;;;;;;5073069;28;20054;-73
2023/10/25 04:09:15;;;;;;;16.83;9.50;;;8.40;99.90;;;;;;5077118;28;20090;-73
2023/10/25 04:11:41;;;;;;;17.15;9.10;;;8.40;99.90;;;;;;5089700;28;20097;-73
2023/10/25 04:14:06;;;;;;;15.70;9.73;;;8.40;99.90;;;;;;5090284;28;20384;-73
2023/10/25 04:16:32;;;;;;;17.25;8.80;;;8.40;99.90;;;;;;5089766;28;20604;-73
2023/10/25 04:18:58;;;;;;;17.45;10.20;;;8.40;99.90;;;;;;5092803;28;20540;-73
2023/10/25 04:21:24;;;;;;;15.55;9.35;;;8.40;99.90;;;;;;5077408;28;20064;-73
2023/10/25 04:23:49;;;;;;;14.32;8.77;;;8.40;99.90;;;;;;5076625;28;20063;-73
2023/10/25 04:26:15;;;;;;;14.82;8.18;;;8.40;99.90;;;;;;5077273;28;20048;-73
2023/10/25 04:28:44;;;;;;;12.85;7.82;;;8.40;99.90;;;;;;5093512;28;20051;-73
2023/10/25 04:31:12;;;;;;;17.30;8.57;;;8.40;99.90;;;;;;5094055;28;20486;-73
2023/10/25 04:33:38;;;;;;;13.93;8.40;;;8.40;99.90;;;;;;5093587;28;20038;-73
2023/10/25 04:36:05;;;;;;;17.25;9.38;;;8.30;99.90;;;;;;5094759;28;20040;-73
2023/10/25 04:38:32;;;;;;;14.07;8.40;;;8.40;99.90;;;;;;5095778;28;20726;-72
2023/10/25 04:40:58;;;;;;;12.48;8.05;;;8.30;99.90;;;;;;5093300;28;20439;-73
2023/10/25 04:43:24;;;;;;;14.52;8.85;;;8.30;99.90;;;;;;5089131;28;20164;-73
2023/10/25 04:45:51;;;;;;;14.57;8.90;;;8.30;99.90;;;;;;5093650;28;20115;-75
2023/10/25 04:48:17;;;;;;;18.08;9.13;;;8.30;99.90;;;;;;5095823;28;20044;-74
2023/10/25 04:50:43;;;;;;;13.15;8.30;;;8.30;99.90;;;;;;5095196;28;20123;-74
2023/10/25 04:53:09;;;;;;;12.70;7.90;;;8.30;99.90;;;;;;5095525;28;20509;-73
2023/10/25 04:55:36;;;;;;;15.40;9.27;;;8.40;99.90;;;;;;5094958;28;20139;-73
2023/10/25 04:58:03;;;;;;;13.63;8.77;;;8.20;99.90;;;;;;5094979;28;20044;-74
2023/10/25 05:00:28;;;;;;;15.65;7.35;;;8.20;99.90;;;;;;5097154;28;20051;-73
2023/10/25 05:02:55;;;;;;;19.30;9.02;;;8.20;99.90;;;;;;5094777;28;20044;-73
2023/10/25 05:05:21;;;;;;;15.75;8.13;;;8.20;99.90;;;;;;5094776;28;20040;-73
2023/10/25 05:07:47;;;;;;;15.00;8.68;;;8.20;99.90;;;;;;5095055;28;20055;-73
2023/10/25 05:10:13;;;;;;;18.60;8.98;;;8.20;99.90;;;;;;5095600;28;20554;-73
2023/10/25 05:12:46;;;;;;;15.15;8.70;;;8.20;99.90;;;;;;5095417;28;20044;-73
2023/10/25 05:15:14;;;;;;;15.95;8.05;;;8.20;99.90;;;;;;5092952;28;20115;-73
2023/10/25 05:17:42;;;;;;;15.23;7.65;;;8.10;99.90;;;;;;5097522;28;20051;-73
2023/10/25 05:20:08;;;;;;;14.07;7.28;;;8.20;99.90;;;;;;5094064;28;20070;-73
2023/10/25 05:22:36;;;;;;;16.98;8.57;;;8.10;99.90;;;;;;5092755;28;20048;-73
2023/10/25 05:25:08;;;;;;;18.42;9.05;;;8.10;99.90;;;;;;5094535;28;20048;-73
2023/10/25 05:27:37;;;;;;;14.70;8.52;;;8.10;99.90;;;;;;5076481;28;20036;-73
2023/10/25 05:30:04;;;;;;;14.15;8.45;;;8.10;99.90;;;;;;5100421;28;20083;-75
2023/10/25 05:32:35;;;;;;;15.10;7.78;;;8.10;99.90;;;;;;5095066;28;20399;-73
2023/10/25 05:35:11;;;;;;;12.38;7.38;;;8.10;99.90;;;;;;5080039;28;20047;-73
2023/10/25 05:37:37;;;;;;;15.52;8.82;;;8.10;99.90;;;;;;5070845;28;20049;-74
2023/10/25 05:40:04;;;;;;;13.68;8.10;;;8.00;99.90;;;;;;5086584;28;20041;-73
2023/10/25 05:42:46;;;;;;;16.52;8.32;;;8.00;99.90;;;;;;5094416;28;20040;-73
2023/10/25 05:45:11;;;;;;;17.77;7.43;;;8.00;99.90;;;;;;5094888;28;20241;-73
2023/10/25 05:47:37;;;;;;;15.30;7.93;;;8.00;99.90;;;;;;5093198;28;20126;-72
2023/10/25 05:50:03;;;;;;;18.55;8.35;;;8.00;99.90;;;;;;5094489;28;20043;-73
2023/10/25 05:52:29;;;;;;;15.57;7.55;;;8.00;99.90;;;;;;5094217;28;20051;-74
2023/10/25 05:54:55;;;;;;;13.77;7.78;;;8.00;99.90;;;;;;5093604;28;20040;-73
2023/10/25 05:57:22;;;;;;;14.13;7.60;;;8.00;99.90;;;;;;5092211;28;20062;-73
2023/10/25 05:59:48;;;;;;;18.10;11.00;;;8.00;99.90;;;;;;5096374;28;20055;-73
2023/10/25 06:02:22;;;;;;;24.17;12.80;;;8.00;99.90;;;;;;5093086;28;20044;-74
2023/10/25 06:04:48;;;;;;;21.20;12.93;;;8.00;99.90;;;;;;5092634;28;20044;-74
2023/10/25 06:07:14;;;;;;;21.77;11.38;;;7.90;99.90;;;;;;5091964;28;20047;-73
2023/10/25 06:09:40;;;;;;;19.95;9.82;;;7.90;99.90;;;;;;5093382;28;20051;-74
2023/10/25 06:12:07;;;;;;;16.75;9.38;;;7.90;99.90;;;;;;5093998;28;20040;-74
2023/10/25 06:14:33;;;;;;;19.55;8.95;;;7.90;99.90;;;;;;5090040;28;20086;-73
2023/10/25 06:16:59;;;;;;;14.73;8.43;;;7.90;99.90;;;;;;5093270;28;20060;-73
2023/10/25 06:19:26;;;;;;;13.73;7.68;;;7.90;99.90;;;;;;5093338;28;20441;-72
2023/10/25 06:21:52;;;;;;;21.80;8.27;;;7.90;99.90;;;;;;5092205;28;20078;-74
2023/10/25 06:24:18;;;;;;;13.43;8.15;;;7.90;99.90;;;;;;5092990;28;20101;-74
2023/10/25 06:26:43;;;;;;;14.70;8.80;;;7.90;99.90;;;;;;5092524;28;20044;-73
2023/10/25 06:29:09;;;;;;;16.90;8.07;;;7.90;99.90;;;;;;5093080;28;20044;-73
2023/10/25 06:31:35;;;;;;;15.88;8.38;;;7.90;99.90;;;;;;5076597;28;20048;-73
2023/10/25 06:34:00;;;;;;;14.15;7.80;;;7.90;99.90;;;;;;5089062;28;20504;-74
2023/10/25 06:36:26;;;;;;;14.95;8.18;;;7.90;99.90;;;;;;5089589;28;20059;-73
2023/10/25 06:38:53;;;;;;;19.42;8.18;;;7.90;99.90;;;;;;5093825;28;20126;-73
2023/10/25 06:41:22;;;;;;;15.88;9.10;;;7.90;99.90;;;;;;5092263;28;20048;-72
2023/10/25 06:43:48;;;;;;;18.45;9.23;;;7.90;99.90;;;;;;5095513;28;20098;-73
2023/10/25 06:46:14;;;;;;;16.27;7.97;;;7.90;99.90;;;;;;5093555;28;20074;-73
2023/10/25 06:48:40;;;;;;;19.33;9.90;;;7.90;99.90;;;;;;5094255;28;20036;-73
2023/10/25 06:51:07;;;;;;;18.60;11.45;;;7.90;99.90;;;;;;5093936;28;20059;-73
2023/10/25 06:53:33;;;;;;;27.40;18.83;;;7.90;99.90;;;;;;5092602;28;20556;-73
2023/10/25 06:55:59;;;;;;;20.83;11.25;;;7.90;99.90;;;;;;5092422;28;20128;-73
2023/10/25 06:58:26;;;;;;;15.82;8.90;;;7.90;99.90;;;;;;5091865;28;20526;-74
2023/10/25 07:00:55;;;;;;;15.23;8.18;;;7.90;99.90;;;;;;5092316;28;20118;-76
2023/10/25 07:03:34;;;;;;;15.55;8.73;;;7.90;99.90;;;;;;5090144;28;20055;-76
2023/10/25 07:06:01;;;;;;;19.58;9.38;;;7.90;99.90;;;;;;5079370;28;20032;-75
2023/10/25 07:08:28;;;;;;;16.75;9.45;;;7.90;99.90;;;;;;5093852;28;20403;-76
2023/10/25 07:10:54;;;;;;;18.77;8.82;;;7.90;99.90;;;;;;5093619;28;20056;-75
2023/10/25 07:13:20;;;;;;;20.10;10.00;;;8.00;99.90;;;;;;5090765;28;20483;-75
2023/10/25 07:15:47;;;;;;;14.07;9.00;;;8.10;99.90;;;;;;5092223;28;20044;-74
2023/10/25 07:18:12;;;;;;;18.60;9.88;;;8.00;99.90;;;;;;5092166;28;20122;-75
2023/10/25 07:20:38;;;;;;;22.20;10.15;;;8.00;99.90;;;;;;5093217;28;20462;-74
2023/10/25 07:23:04;;;;;;;16.38;9.07;;;8.00;99.90;;;;;;5093717;28;20061;-73
2023/10/25 07:25:30;;;;;;;16.98;10.10;;;8.00;99.90;;;;;;5102647;28;20043;-73
2023/10/25 07:27:58;;;;;;;20.77;9.80;;;8.00;99.90;;;;;;5100076;28;20105;-73
2023/10/25 07:30:23;;;;;;;17.10;10.10;;;8.10;99.90;;;;;;5087047;28;20048;-73
2023/10/25 07:32:49;;;;;;;20.65;11.10;;;8.10;99.90;;;;;;5090216;28;20044;-73
2023/10/25 07:35:15;;;;;;;16.23;8.50;;;8.10;99.90;;;;;;5078234;28;20415;-73
2023/10/25 07:37:40;;;;;;;17.98;9.18;;;8.10;99.90;;;;;;5095531;28;20472;-73
2023/10/25 07:40:07;;;;;;;19.55;10.18;;;8.20;99.90;;;;;;5094164;28;20769;-73
2023/10/25 07:42:32;;;;;;;15.57;9.48;;;8.10;99.90;;;;;;5096622;28;20093;-74
2023/10/25 07:44:58;;;;;;;15.18;8.85;;;8.20;99.90;;;;;;5091281;28;20180;-73
2023/10/25 07:47:24;;;;;;;17.00;9.73;;;8.10;99.90;;;;;;5092606;28;20086;-73
2023/10/25 07:49:49;;;;;;;17.02;10.18;;;8.10;99.90;;;;;;5092444;28;20055;-73
2023/10/25 07:52:16;;;;;;;15.27;8.98;;;8.10;99.90;;;;;;5094270;28;20120;-73
2023/10/25 07:54:42;;;;;;;15.80;9.32;;;8.20;99.90;;;;;;5096581;28;20092;-73
2023/10/25 07:57:08;;;;;;;16.38;9.25;;;8.20;99.90;;;;;;5091037;28;20122;-73
2023/10/25 07:59:33;;;;;;;17.52;9.93;;;8.20;99.90;;;;;;5091671;28;20123;-73
2023/10/25 08:01:59;;;;;;;14.35;8.88;;;8.10;99.90;;;;;;5074244;28;20086;-73
2023/10/25 08:04:25;;;;;;;14.57;8.95;;;8.20;99.90;;;;;;5073558;28;20096;-73
2023/10/25 08:06:51;;;;;;;16.27;8.18;;;8.20;99.90;;;;;;5090885;28;20043;-74
2023/10/25 08:09:17;;;;;;;15.43;8.40;;;8.30;99.90;;;;;;5090733;28;20123;-74
2023/10/25 08:11:43;;;;;;;18.20;9.13;;;8.30;99.90;;;;;;5090800;28;20048;-74
2023/10/25 08:14:09;;;;;;;17.90;9.07;;;8.30;99.90;;;;;;5072981;28;20560;-73
2023/10/25 08:16:39;;;;;;;19.77;8.90;;;8.40;99.90;;;;;;5091393;28;20398;-73
2023/10/25 08:19:09;;;;;;;14.80;7.90;;;8.50;99.90;;;;;;5092257;28;20055;-73
2023/10/25 08:21:38;;;;;;;14.23;8.15;;;8.40;99.90;;;;;;5090511;28;20140;-73
2023/10/25 08:24:07;;;;;;;12.02;7.28;;;8.40;99.90;;;;;;5094984;28;20164;-73
2023/10/25 08:26:39;;;;;;;14.50;7.93;;;8.40;99.90;;;;;;5084973;28;20048;-73
2023/10/25 08:29:09;;;;;;;17.08;9.05;;;8.50;99.90;;;;;;5079061;28;20049;-72
2023/10/25 08:31:35;;;;;;;18.50;8.88;;;8.70;99.90;;;;;;5075950;28;20400;-73
2023/10/25 08:34:00;;;;;;;16.85;9.02;;;8.60;99.90;;;;;;5080959;28;20040;-73
2023/10/25 08:36:29;;;;;;;17.75;9.43;;;8.60;99.90;;;;;;5082489;28;20059;-73
2023/10/25 08:38:58;;;;;;;14.25;9.02;;;8.60;99.90;;;;;;5082468;28;20055;-74
2023/10/25 08:41:28;;;;;;;13.57;8.00;;;8.70;99.90;;;;;;5085234;28;20036;-73
2023/10/25 08:43:54;;;;;;;19.73;8.63;;;8.70;99.90;;;;;;5086260;28;20051;-73
2023/10/25 08:46:22;;;;;;;14.52;8.30;;;8.80;99.90;;;;;;5079953;28;20403;-73
2023/10/25 08:48:52;;;;;;;12.75;7.63;;;8.80;99.90;;;;;;5063665;28;20087;-74
2023/10/25 08:51:19;;;;;;;15.75;9.40;;;8.90;99.90;;;;;;5077733;28;20036;-74
2023/10/25 08:53:47;;;;;;;17.23;8.73;;;8.90;99.90;;;;;;5082451;28;20048;-74
2023/10/25 08:56:13;;;;;;;18.23;9.25;;;9.00;99.90;;;;;;5077641;28;20072;-76
2023/10/25 08:58:39;;;;;;;14.02;8.50;;;9.10;99.90;;;;;;5086515;28;20468;-76
2023/10/25 09:01:07;;;;;;;20.30;8.95;;;9.10;99.90;;;;;;5084169;28;20123;-75
2023/10/25 09:03:38;;;;;;;17.27;7.95;;;9.20;99.90;;;;;;5063476;28;20476;-76
2023/10/25 09:06:07;;;;;;;17.48;8.88;;;9.30;99.90;;;;;;5091187;28;20564;-75
2023/10/25 09:08:36;;;;;;;13.63;8.23;;;9.30;99.90;;;;;;5085854;28;20051;-75
2023/10/25 09:11:04;;;;;;;16.58;7.93;;;9.30;99.90;;;;;;5083419;28;20048;-76
2023/10/25 09:13:31;;;;;;;15.73;7.82;;;9.30;99.90;;;;;;5090462;28;20130;-76
2023/10/25 09:16:08;;;;;;;12.00;7.18;;;9.40;99.90;;;;;;5089276;28;20482;-74
2023/10/25 09:18:38;;;;;;;16.55;7.88;;;9.50;99.90;;;;;;5072425;28;20086;-74
2023/10/25 09:21:05;;;;;;;12.50;7.85;;;9.50;99.90;;;;;;5084921;28;20046;-73
2023/10/25 09:23:33;;;;;;;16.67;7.70;;;9.50;99.90;;;;;;5068807;28;20085;-74
2023/10/25 09:26:16;;;;;;;15.30;7.82;;;9.60;99.90;;;;;;5088981;28;20037;-75
2023/10/25 09:28:43;;;;;;;12.52;7.53;;;9.60;99.90;;;;;;5088582;28;20071;-76
2023/10/25 09:31:29;;;;;;;12.48;7.05;;;9.90;99.90;;;;;;5096277;28;20481;-75
2023/10/25 09:34:00;;;;;;;14.32;7.68;;;9.70;99.90;;;;;;5092804;28;20040;-75
2023/10/25 09:36:27;;;;;;;12.50;7.32;;;9.80;99.90;;;;;;5092717;28;20052;-75
2023/10/25 09:38:53;;;;;;;13.52;7.10;;;10.00;99.90;;;;;;5106701;28;20457;-75
2023/10/25 09:41:20;;;;;;;12.25;7.80;;;9.90;99.90;;;;;;5093547;28;20728;-76
2023/10/25 09:43:50;;;;;;;11.50;7.63;;;9.90;99.90;;;;;;5094487;28;20040;-77
2023/10/25 09:46:22;;;;;;;14.32;7.47;;;10.00;99.90;;;;;;5082117;28;20052;-75
2023/10/25 09:49:10;;;;;;;11.98;7.28;;;10.10;99.90;;;;;;5096517;28;20039;-76
2023/10/25 09:52:05;;;;;;;13.43;6.70;;;10.20;99.90;;;;;;5089174;28;20055;-75
2023/10/25 09:54:33;;;;;;;11.35;7.25;;;10.30;99.90;;;;;;5084775;28;20084;-76
2023/10/25 09:57:02;;;;;;;12.02;6.75;;;10.40;99.90;;;;;;5076115;28;20036;-76
2023/10/25 09:59:30;;;;;;;13.45;6.13;;;10.50;99.90;;;;;;5099740;28;20510;-75
2023/10/25 10:01:56;;;;;;;15.50;6.90;;;10.60;99.90;;;;;;5066219;28;20048;-76
2023/10/25 10:04:37;;;;;;;16.27;7.15;;;10.70;99.90;;;;;;5092476;28;20419;-76
2023/10/25 10:07:11;;;;;;;13.68;6.53;;;10.80;99.90;;;;;;5087062;28;20040;-76
2023/10/25 10:09:50;;;;;;;13.15;6.78;;;10.90;99.90;;;;;;5076891;28;20048;-75
2023/10/25 10:12:18;;;;;;;12.35;6.88;;;11.10;99.90;;;;;;5091990;28;20079;-76
2023/10/25 10:14:44;;;;;;;13.38;6.88;;;11.20;99.90;;;;;;5093635;28;20075;-76
2023/10/25 10:17:13;;;;;;;10.40;6.50;;;11.30;99.90;;;;;;5093869;28;20428;-76
2023/10/25 10:19:48;;;;;;;15.15;7.25;;;11.40;99.90;;;;;;5092021;28;20530;-76
2023/10/25 10:22:16;;;;;;;13.10;5.60;;;11.60;99.90;;;;;;5059071;28;20531;-76
2023/10/25 10:24:46;;;;;;;12.40;6.57;;;11.70;99.90;;;;;;5047295;28;20063;-77
2023/10/25 10:27:23;;;;;;;13.80;6.68;;;11.80;99.90;;;;;;5081553;28;20534;-76
2023/10/25 10:29:49;;;;;;;10.82;6.18;;;12.00;99.90;;;;;;5090308;28;20053;-76
2023/10/25 10:32:16;;;;;;;9.77;5.13;;;12.20;99.90;;;;;;5085065;28;20079;-76
2023/10/25 10:34:49;;;;;;;12.25;5.43;;;12.30;99.90;;;;;;5084596;28;20072;-74
2023/10/25 10:37:17;;;;;;;10.73;5.72;;;12.40;99.90;;;;;;5092132;28;20058;-76
2023/10/25 10:40:03;;;;;;;11.70;5.97;;;12.60;99.90;;;;;;5072505;28;20044;-76
2023/10/25 10:42:29;;;;;;;13.90;6.60;;;12.70;99.90;;;;;;5072091;28;20396;-76
2023/10/25 10:44:58;;;;;;;12.25;7.20;;;12.70;99.90;;;;;;5092454;28;20050;-76
2023/10/25 10:47:37;;;;;;;14.48;6.93;;;12.70;99.90;;;;;;5091375;28;20064;-78
2023/10/25 10:50:12;;;;;;;13.68;6.93;;;12.70;99.90;;;;;;5088532;28;20068;-77
2023/10/25 10:52:39;;;;;;;;;;;12.60;99.90;;;;;;5096509;28;20048;-75
2023/10/25 10:55:11;;;;;;;13.85;6.85;;;12.60;99.90;;;;;;5092174;28;19923;-76
2023/10/25 10:57:37;;;;;;;11.15;6.40;;;12.60;99.90;;;;;;5092010;28;20050;-75
2023/10/25 11:00:09;;;;;;;12.43;7.28;;;12.60;99.90;;;;;;5091567;28;20131;-76
2023/10/25 11:02:39;;;;;;;9.65;5.93;;;12.50;99.90;;;;;;5093121;28;20055;-76
2023/10/25 11:05:06;;;;;;;12.32;5.93;;;12.60;99.90;;;;;;5093387;28;20418;-76
2023/10/25 11:07:32;;;;;;;13.35;6.30;;;12.50;99.90;;;;;;5092374;28;20500;-75
2023/10/25 11:09:59;;;;;;;14.95;6.55;;;12.60;99.90;;;;;;5092722;28;20055;-76
2023/10/25 11:12:25;;;;;;;11.32;6.50;;;12.60;99.90;;;;;;5092616;28;20044;-75
2023/10/25 11:14:51;;;;;;;11.18;5.90;;;12.50;99.90;;;;;;5091922;28;20450;-75
2023/10/25 11:17:18;;;;;;;10.00;5.32;;;12.60;99.90;;;;;;5092370;28;20138;-76
2023/10/25 11:19:48;;;;;;;10.35;5.63;;;12.50;99.90;;;;;;5092441;28;20050;-76
2023/10/25 11:22:14;;;;;;;9.23;5.22;;;12.60;99.90;;;;;;5090584;28;20127;-75
2023/10/25 11:24:40;;;;;;;9.32;4.78;;;12.50;99.90;;;;;;5090018;28;20189;-74
2023/10/25 11:27:06;;;;;;;8.90;5.53;;;12.50;99.90;;;;;;5091349;28;20134;-74
2023/10/25 11:29:35;;;;;;;8.73;5.15;;;12.50;99.90;;;;;;5091322;28;20144;-76
2023/10/25 11:32:01;;;;;;;9.52;5.30;;;12.40;99.90;;;;;;5073215;28;20122;-74
2023/10/25 11:34:34;;;;;;;11.13;5.40;;;12.40;99.90;;;;;;5091528;28;20135;-75
2023/10/25 11:37:01;;;;;;;10.40;5.78;;;12.40;99.90;;;;;;5092070;28;20071;-75
2023/10/25 11:39:34;;;;;;;7.03;4.88;;;12.40;99.90;;;;;;5091873;28;20066;-75
2023/10/25 11:42:00;;;;;;;8.65;4.93;;;12.30;99.90;;;;;;5087735;28;20360;-75
2023/10/25 11:44:27;;;;;;;11.98;5.00;;;12.30;99.90;;;;;;5102114;28;20184;-75
2023/10/25 11:46:58;;;;;;;10.65;4.95;;;12.30;99.90;;;;;;5096891;28;20109;-74
2023/10/25 11:49:25;;;;;;;10.38;5.38;;;12.30;99.90;;;;;;5091689;28;20066;-75
2023/10/25 11:51:53;;;;;;;11.23;4.90;;;12.20;99.90;;;;;;5090974;28;20081;-74
2023/10/25 11:54:19;;;;;;;8.70;4.55;;;12.20;99.90;;;;;;5091081;28;20491;-74
2023/10/25 11:56:48;;;;;;;9.63;3.90;;;12.20;99.90;;;;;;5111332;28;20044;-74
2023/10/25 11:59:13;;;;;;;8.25;4.18;;;12.20;99.90;;;;;;5101947;28;20040;-74
2023/10/25 12:01:39;;;;;;;10.82;4.88;;;12.20;99.90;;;;;;5090258;28;20491;-75
2023/10/25 12:04:05;;;;;;;9.27;4.72;;;12.20;99.90;;;;;;5091091;28;20494;-75
2023/10/25 12:06:31;;;;;;;10.30;5.82;;;12.20;99.90;;;;;;5086686;28;20043;-74
2023/10/25 12:08:57;;;;;;;11.30;5.43;;;12.20;99.90;;;;;;5090997;28;20043;-74
2023/10/25 12:11:23;;;;;;;12.18;5.80;;;12.20;99.90;;;;;;5073112;28;20059;-75
2023/10/25 12:13:49;;;;;;;9.75;4.55;;;12.20;99.90;;;;;;5090945;28;20047;-75
2023/10/25 12:16:14;;;;;;;9.05;4.70;;;12.20;99.90;;;;;;5091287;28;20071;-74
2023/10/25 12:18:40;;;;;;;10.77;5.00;;;12.20;99.90;;;;;;5089384;28;20624;-74
2023/10/25 12:21:08;;;;;;;9.13;4.78;;;12.20;99.90;;;;;;5091350;28;20066;-75
2023/10/25 12:23:33;;;;;;;9.25;5.30;;;12.20;99.90;;;;;;5090617;28;20058;-75
2023/10/25 12:26:00;;;;;;;10.82;4.78;;;12.10;99.90;;;;;;5090129;28;20612;-76
2023/10/25 12:28:26;;;;;;;6.70;4.38;;;12.10;99.90;;;;;;5087035;28;20083;-76
2023/10/25 12:30:52;;;;;;;7.55;4.55;;;12.10;99.90;;;;;;5075239;28;20444;-76
2023/10/25 12:33:18;;;;;;;10.25;4.60;;;12.10;99.90;;;;;;5067482;28;20071;-76
2023/10/25 12:35:43;;;;;;;10.27;4.22;;;12.10;99.90;;;;;;5085269;28;20086;-76
2023/10/25 12:38:10;;;;;;;10.02;4.50;;;12.10;99.90;;;;;;5080624;28;20130;-76
2023/10/25 12:40:36;;;;;;;6.35;3.70;;;12.10;99.90;;;;;;5070485;28;20081;-76
2023/10/25 12:43:01;;;;;;;7.70;4.57;;;12.00;99.90;;;;;;5090848;28;20398;-76
2023/10/25 12:45:31;;;;;;;9.10;4.05;;;12.00;99.90;;;;;;5088101;28;20048;-77
2023/10/25 12:47:57;;;;;;;9.88;3.83;;;12.00;99.90;;;;;;5086687;28;20472;-77